< < Back
Terminal Aerodrome Forecast


Current Version              Previous Versions:   1  2  3  4  5  6  7  8  9  

Terminal Aerodrome Forecast

229
FTUS42 KCAE 272121 AAA
TAFAGS
TAF AMD
KAGS 272121Z 2721/2818 VRB05KT P6SM VCSH BKN035
     FM280200 VRB03KT P6SM BKN080
     FM280800 VRB03KT 5SM BR SCT015 BKN050
     FM281100 VRB03KT 2SM BR BKN008 BKN015
     FM281300 VRB04KT P6SM SCT020 BKN040=

Latest METAR

199
SAUS70 KWBC 280400 RRP
MTRAGS
METAR KAGS 280353Z AUTO 17003KT 10SM BKN060 OVC070 23/20 A3021 RMK AO2
SLP228 T02280200


USA.gov is the U.S. government's official web portal to all federal, state and local government web resources and services.